Puerto Limon, Costa Rica
Current Conditions -  °F | °C
As of 10:00 AM on Wednesday 28 Jan 2015 (Local Time) from MRLM Reporting Station
Broken Clouds Broken Clouds  
Wind Chill: 75°   Ceiling: 1000
Heat Index: 75°   Visibility: 6mi
Dew Point: 73°   Wind: 7mph
Humidity: 94%   Direction: 270°W
Pressure: 30"   Gusts: NA
Location:  9.99°N, 83.04°W
Report Text: MRLM 281600Z 27006KT 9999 BKN010 24/23 A3000 RERA
Loading
Personal Weather Stations






























Interactive Weather Map New forecast layout! Learn more

10-Day Weather Forecast

Advertisements
Track Severe Weather on mobile